Time;durP1;ratioP1;P1;durP2;ratioP2;P2;SDS_P1;SDS_P2;PMS_P1;PMS_P2;Temp;Humidity;BMP_temperature;BMP_pressure;BME280_temperature;BME280_humidity;BME280_pressure;Samples;Min_cycle;Max_cycle;Signal;HPM_P1;HPM_P2
2022/09/23 00:00:48;;;;;;;1.90;1.00;;;11.40;99.90;;;;;;4993244;28;20034;-73
2022/09/23 00:03:15;;;;;;;1.70;1.17;;;11.40;99.90;;;;;;4993398;28;20039;-73
2022/09/23 00:05:41;;;;;;;1.85;1.17;;;11.40;99.90;;;;;;4992761;28;20122;-72
2022/09/23 00:08:11;;;;;;;4.40;1.33;;;11.00;99.90;;;;;;4993877;28;20057;-73
2022/09/23 00:10:39;;;;;;;3.55;1.80;;;10.60;99.90;;;;;;4993428;28;20034;-73
2022/09/23 00:13:05;;;;;;;2.83;1.40;;;10.50;99.90;;;;;;4992105;28;20094;-73
2022/09/23 00:15:32;;;;;;;3.45;1.73;;;10.60;99.90;;;;;;4992310;28;20029;-72
2022/09/23 00:17:58;;;;;;;5.25;2.17;;;10.70;99.90;;;;;;4992518;28;20042;-72
2022/09/23 00:20:24;;;;;;;1.88;1.15;;;10.80;99.90;;;;;;4992148;28;20030;-72
2022/09/23 00:22:50;;;;;;;1.85;1.38;;;10.80;99.90;;;;;;4992000;28;20050;-73
2022/09/23 00:25:16;;;;;;;2.25;1.40;;;10.90;99.90;;;;;;4991962;28;20092;-73
2022/09/23 00:27:41;;;;;;;1.40;1.08;;;10.90;99.90;;;;;;4992464;28;20061;-72
2022/09/23 00:30:09;;;;;;;4.82;1.25;;;10.90;99.90;;;;;;4992968;28;20392;-73
2022/09/23 00:32:36;;;;;;;1.33;1.17;;;10.90;99.90;;;;;;4993057;28;20113;-72
2022/09/23 00:35:02;;;;;;;3.80;1.40;;;10.90;99.90;;;;;;4993226;28;20030;-74
2022/09/23 00:37:29;;;;;;;3.15;1.42;;;10.80;99.90;;;;;;4993408;28;20027;-72
2022/09/23 00:39:55;;;;;;;2.83;1.80;;;10.80;99.90;;;;;;4991603;28;20506;-72
2022/09/23 00:42:23;;;;;;;3.53;1.63;;;10.80;99.90;;;;;;4992833;28;20019;-72
2022/09/23 00:44:54;;;;;;;2.30;1.50;;;10.70;99.90;;;;;;4991818;28;20030;-72
2022/09/23 00:47:46;;;;;;;1.92;1.20;;;10.60;99.90;;;;;;4992869;28;20038;-71
2022/09/23 00:50:29;;;;;;;1.58;1.20;;;10.70;99.90;;;;;;4993010;28;20038;-72
2022/09/23 00:52:58;;;;;;;3.22;1.65;;;10.70;99.90;;;;;;4991571;28;20042;-72
2022/09/23 00:55:38;;;;;;;5.22;1.35;;;10.60;99.90;;;;;;4975905;28;20042;-72
2022/09/23 00:58:06;;;;;;;1.85;1.15;;;10.50;99.90;;;;;;4991809;28;20181;-72
2022/09/23 01:00:32;;;;;;;3.67;1.38;;;10.60;99.90;;;;;;4975224;28;20442;-72
2022/09/23 01:02:59;;;;;;;2.78;1.60;;;10.60;99.90;;;;;;4991158;28;20028;-72
2022/09/23 01:05:26;;;;;;;4.80;1.20;;;10.60;99.90;;;;;;4984186;28;20022;-72
2022/09/23 01:07:56;;;;;;;3.42;1.58;;;10.60;99.90;;;;;;4986955;28;20026;-72
2022/09/23 01:10:23;;;;;;;4.60;1.75;;;10.50;99.90;;;;;;5006606;28;20026;-72
2022/09/23 01:13:07;;;;;;;2.70;1.30;;;10.30;99.90;;;;;;4992090;28;20390;-72
2022/09/23 01:15:59;;;;;;;2.90;1.50;;;10.40;99.90;;;;;;4983743;28;20097;-72
2022/09/23 01:18:57;;;;;;;3.08;1.60;;;10.40;99.90;;;;;;4973045;28;20034;-72
2022/09/23 01:21:33;;;;;;;2.45;1.55;;;10.50;99.90;;;;;;4969006;28;20451;-72
2022/09/23 01:24:32;;;;;;;1.80;1.08;;;10.40;99.90;;;;;;4980284;28;20372;-72
2022/09/23 01:27:41;;;;;;;2.35;0.95;;;10.50;99.90;;;;;;5005160;28;20036;-72
2022/09/23 01:31:03;;;;;;;2.92;1.65;;;10.60;99.90;;;;;;4991794;28;20042;-72
2022/09/23 01:33:36;;;;;;;;;;;10.50;99.90;;;;;;4992161;28;20064;-72
2022/09/23 01:36:22;;;;;;;2.72;1.42;;;10.50;99.90;;;;;;4991740;28;20005;-72
2022/09/23 01:42:03;;;;;;;1.40;1.08;;;10.50;99.90;;;;;;4964671;28;20063;-79
2022/09/23 01:44:40;;;;;;;;;;;10.40;99.90;;;;;;4972811;28;20039;-79
2022/09/23 01:47:20;;;;;;;2.08;1.40;;;10.30;99.90;;;;;;4971700;28;20339;-79
2022/09/23 01:49:57;;;;;;;2.10;1.00;;;10.30;99.90;;;;;;4972036;28;20502;-79
2022/09/23 01:52:37;;;;;;;6.07;1.58;;;10.20;99.90;;;;;;4970639;28;20122;-79
2022/09/23 01:55:41;;;;;;;1.65;0.93;;;10.20;99.90;;;;;;4971046;28;20027;-78
2022/09/23 01:58:14;;;;;;;2.08;1.25;;;10.20;99.90;;;;;;4971694;28;20035;-79
2022/09/23 02:00:51;;;;;;;2.55;1.40;;;10.20;99.90;;;;;;4971954;28;20045;-79
2022/09/23 02:03:25;;;;;;;3.10;2.03;;;10.20;99.90;;;;;;4970841;28;20102;-79
2022/09/23 02:06:03;;;;;;;4.57;1.70;;;10.20;99.90;;;;;;4971238;28;20121;-78
2022/09/23 02:08:59;;;;;;;3.80;1.63;;;10.10;99.90;;;;;;4971010;28;20138;-78
2022/09/23 02:11:26;;;;;;;2.25;1.30;;;10.10;99.90;;;;;;4972394;28;20526;-78
2022/09/23 02:14:18;;;;;;;2.95;1.95;;;10.10;99.90;;;;;;4971772;28;20045;-79
2022/09/23 02:16:49;;;;;;;3.00;1.65;;;10.00;99.90;;;;;;4933334;29;20395;-79
2022/09/23 02:19:27;;;;;;;2.42;1.42;;;10.00;99.90;;;;;;4947481;29;20103;-78
2022/09/23 02:22:05;;;;;;;3.40;2.00;;;9.90;99.90;;;;;;4948020;29;20039;-78
2022/09/23 02:24:37;;;;;;;2.40;1.48;;;9.80;99.90;;;;;;4947779;29;20440;-79
2022/09/23 02:27:31;;;;;;;3.42;1.60;;;9.90;99.90;;;;;;4948009;29;20031;-79
2022/09/23 02:30:15;;;;;;;2.38;1.17;;;9.80;99.90;;;;;;4933179;29;20039;-79
2022/09/23 02:33:05;;;;;;;1.85;1.10;;;9.80;99.90;;;;;;4947562;29;20027;-79
2022/09/23 02:35:47;;;;;;;3.10;1.30;;;9.80;99.90;;;;;;4933712;29;20123;-79
2022/09/23 02:39:01;;;;;;;3.92;1.30;;;9.80;99.90;;;;;;4947170;29;20508;-79
2022/09/23 02:41:53;;;;;;;3.92;1.65;;;9.80;99.90;;;;;;4936303;29;20043;-79
2022/09/23 02:44:21;;;;;;;1.77;1.40;;;9.80;99.90;;;;;;4946101;29;20032;-79
2022/09/23 02:46:49;;;;;;;3.70;1.75;;;9.70;99.90;;;;;;4947923;29;20027;-79
2022/09/23 02:49:29;;;;;;;1.80;1.40;;;9.70;99.90;;;;;;4947375;29;20100;-79
2022/09/23 02:51:58;;;;;;;2.55;1.70;;;9.70;99.90;;;;;;4949666;28;20055;-79
2022/09/23 02:54:27;;;;;;;2.47;1.63;;;9.70;99.90;;;;;;4951060;29;20091;-79
2022/09/23 02:56:54;;;;;;;3.97;2.38;;;9.70;99.90;;;;;;4937289;29;20055;-78
2022/09/23 02:59:22;;;;;;;6.25;1.75;;;9.70;99.90;;;;;;4951359;29;20455;-80
2022/09/23 03:02:20;;;;;;;4.53;1.60;;;9.70;99.90;;;;;;4952041;29;20059;-80
2022/09/23 03:05:06;;;;;;;3.85;2.25;;;9.60;99.90;;;;;;4935385;29;20493;-78
2022/09/23 03:08:08;;;;;;;5.00;1.75;;;9.60;99.90;;;;;;4937051;29;20152;-78
2022/09/23 03:11:03;;;;;;;6.10;2.35;;;9.60;99.90;;;;;;4935028;29;20036;-78
2022/09/23 03:13:49;;;;;;;2.92;1.40;;;9.60;99.90;;;;;;4936412;29;20128;-78
2022/09/23 03:16:33;;;;;;;3.58;2.00;;;9.60;99.90;;;;;;4983591;28;20502;-78
2022/09/23 03:19:41;;;;;;;14.25;2.78;;;9.60;99.90;;;;;;4973847;28;20121;-77
2022/09/23 03:22:18;;;;;;;2.22;1.75;;;9.60;99.90;;;;;;4975090;28;20035;-79
2022/09/23 03:24:46;;;;;;;3.22;1.73;;;9.60;99.90;;;;;;4989339;28;20037;-79
2022/09/23 03:27:17;;;;;;;8.70;2.10;;;9.50;99.90;;;;;;4974194;28;20549;-79
2022/09/23 03:29:52;;;;;;;2.92;1.70;;;9.30;99.90;;;;;;4989774;28;20054;-79
2022/09/23 03:32:21;;;;;;;2.53;1.63;;;9.40;99.90;;;;;;4989723;28;20031;-78
2022/09/23 03:34:50;;;;;;;3.70;2.03;;;9.40;99.90;;;;;;4990092;28;20033;-79
2022/09/23 03:37:46;;;;;;;5.35;1.98;;;9.40;99.90;;;;;;4973821;28;20026;-79
2022/09/23 03:40:32;;;;;;;7.93;2.58;;;9.30;99.90;;;;;;4989452;28;20045;-78
2022/09/23 03:43:00;;;;;;;3.38;2.15;;;9.40;99.90;;;;;;4989706;28;20030;-79
2022/09/23 03:45:31;;;;;;;4.60;2.40;;;9.30;99.90;;;;;;4989951;28;20067;-78
2022/09/23 03:47:58;;;;;;;7.22;2.13;;;9.30;99.90;;;;;;4989631;28;20126;-77
2022/09/23 03:50:23;;;;;;;2.85;1.92;;;9.40;99.90;;;;;;4974383;28;20034;-77
2022/09/23 03:52:49;;;;;;;4.30;2.60;;;9.30;99.90;;;;;;4975061;28;20039;-83
2022/09/23 03:55:17;;;;;;;2.70;1.67;;;9.30;99.90;;;;;;4974619;28;20035;-82
2022/09/23 03:57:44;;;;;;;3.40;1.90;;;9.20;99.90;;;;;;4974766;28;20461;-82
2022/09/23 04:00:11;;;;;;;2.85;1.65;;;9.30;99.90;;;;;;4989129;28;20542;-81
2022/09/23 04:02:38;;;;;;;5.97;2.95;;;9.20;99.90;;;;;;4988832;28;20034;-81
2022/09/23 04:05:05;;;;;;;2.95;2.17;;;9.20;99.90;;;;;;4974329;28;20521;-82
2022/09/23 04:07:31;;;;;;;3.95;1.70;;;9.20;99.90;;;;;;4989266;28;20060;-81
2022/09/23 04:09:56;;;;;;;3.35;2.08;;;9.10;99.90;;;;;;4974209;28;20031;-80
2022/09/23 04:12:22;;;;;;;2.42;1.63;;;9.10;99.90;;;;;;4989205;28;20030;-81
2022/09/23 04:14:48;;;;;;;4.80;2.42;;;9.10;99.90;;;;;;4969596;28;20026;-81
2022/09/23 04:17:14;;;;;;;10.23;2.90;;;9.10;99.90;;;;;;4969925;28;20046;-82
2022/09/23 04:19:40;;;;;;;2.50;1.85;;;9.10;99.90;;;;;;4969430;28;20031;-81
2022/09/23 04:22:06;;;;;;;3.05;2.35;;;9.10;99.90;;;;;;4951613;28;20039;-79
2022/09/23 04:24:32;;;;;;;5.47;1.80;;;9.10;99.90;;;;;;4966201;28;20395;-79
2022/09/23 04:26:57;;;;;;;8.93;2.30;;;9.20;99.90;;;;;;4969390;28;20031;-78
2022/09/23 04:29:24;;;;;;;3.63;2.53;;;9.10;99.90;;;;;;4952827;28;20451;-81
2022/09/23 04:31:51;;;;;;;2.17;1.50;;;9.10;99.90;;;;;;4953495;29;20038;-83
2022/09/23 04:34:18;;;;;;;3.83;2.20;;;9.10;99.90;;;;;;4953046;28;20034;-79
2022/09/23 04:36:45;;;;;;;5.47;2.67;;;9.00;99.90;;;;;;4937701;29;20031;-80
2022/09/23 04:39:12;;;;;;;4.38;2.60;;;9.00;99.90;;;;;;4936788;29;20102;-80
2022/09/23 04:41:38;;;;;;;6.38;3.20;;;9.10;99.90;;;;;;4953482;28;20082;-81
2022/09/23 04:44:04;;;;;;;4.40;2.30;;;9.10;99.90;;;;;;4952750;29;20035;-80
2022/09/23 04:46:30;;;;;;;3.05;1.42;;;9.10;99.90;;;;;;4954786;28;20035;-80
2022/09/23 04:48:56;;;;;;;5.32;2.45;;;9.10;99.90;;;;;;4953194;28;20038;-79
2022/09/23 04:51:24;;;;;;;4.82;2.13;;;9.10;99.90;;;;;;4953902;28;20113;-78
2022/09/23 04:53:54;;;;;;;3.65;2.03;;;9.10;99.90;;;;;;4952198;29;20051;-80
2022/09/23 04:56:33;;;;;;;2.72;2.13;;;9.10;99.90;;;;;;4968582;28;20027;-81
2022/09/23 04:59:00;;;;;;;4.65;2.80;;;9.10;99.90;;;;;;4967948;28;20031;-82
2022/09/23 05:01:33;;;;;;;4.65;2.80;;;9.10;99.90;;;;;;4953698;28;20023;-78
2022/09/23 05:04:02;;;;;;;4.85;2.97;;;9.00;99.90;;;;;;4968264;28;20030;-76
2022/09/23 05:06:30;;;;;;;5.88;2.15;;;9.00;99.90;;;;;;4953619;28;20035;-75
2022/09/23 05:08:57;;;;;;;4.13;2.10;;;9.00;99.90;;;;;;4945501;28;20123;-74
2022/09/23 05:11:24;;;;;;;3.47;2.00;;;9.00;99.90;;;;;;4967138;28;20077;-71
2022/09/23 05:13:53;;;;;;;6.15;3.47;;;9.10;99.90;;;;;;4971638;28;20030;-73
2022/09/23 05:16:22;;;;;;;3.72;2.03;;;9.10;99.90;;;;;;4965451;28;20027;-73
2022/09/23 05:18:48;;;;;;;4.22;2.85;;;9.00;99.90;;;;;;4951369;29;20478;-74
2022/09/23 05:21:19;;;;;;;3.50;1.90;;;9.00;99.90;;;;;;4935525;29;20447;-72
2022/09/23 05:23:54;;;;;;;3.85;1.95;;;9.00;99.90;;;;;;4951555;29;20031;-73
2022/09/23 05:26:28;;;;;;;4.60;2.13;;;9.00;99.90;;;;;;4951687;28;20047;-75
2022/09/23 05:28:55;;;;;;;6.55;2.30;;;8.80;99.90;;;;;;4952529;28;20035;-72
2022/09/23 05:31:24;;;;;;;8.88;2.20;;;8.80;99.90;;;;;;4952745;29;20523;-73
2022/09/23 05:34:03;;;;;;;2.88;1.88;;;9.00;99.90;;;;;;4952449;28;20077;-72
2022/09/23 05:36:32;;;;;;;34.33;14.85;;;9.00;99.90;;;;;;4951079;29;20031;-73
2022/09/23 05:38:58;;;;;;;4.13;2.20;;;9.10;99.90;;;;;;4951973;28;20065;-73
2022/09/23 05:41:25;;;;;;;5.47;2.10;;;9.10;99.90;;;;;;4952581;28;20440;-70
2022/09/23 05:43:53;;;;;;;4.15;2.00;;;9.00;99.90;;;;;;4955724;29;20031;-74
2022/09/23 05:46:22;;;;;;;3.97;2.10;;;9.10;99.90;;;;;;4951469;29;20138;-71
2022/09/23 05:48:48;;;;;;;3.60;1.98;;;9.00;99.90;;;;;;4950747;28;20115;-73
2022/09/23 05:51:18;;;;;;;2.92;2.08;;;9.10;99.90;;;;;;4951112;28;20043;-72
2022/09/23 05:53:45;;;;;;;5.13;2.38;;;9.00;99.90;;;;;;4950975;28;20028;-72
2022/09/23 05:56:17;;;;;;;5.25;3.08;;;9.10;99.90;;;;;;4952096;28;20046;-73
2022/09/23 05:58:43;;;;;;;4.60;2.63;;;9.20;99.90;;;;;;4951132;28;20110;-73
2022/09/23 06:01:35;;;;;;;2.90;2.10;;;9.30;99.90;;;;;;4951532;28;20032;-72
2022/09/23 06:04:04;;;;;;;7.38;3.50;;;9.40;99.90;;;;;;4932126;29;20114;-74
2022/09/23 06:06:34;;;;;;;3.60;1.83;;;9.40;99.90;;;;;;4933349;29;20039;-74
2022/09/23 06:09:00;;;;;;;6.65;3.13;;;9.30;99.90;;;;;;4947202;28;20066;-74
2022/09/23 06:11:30;;;;;;;5.38;2.53;;;9.40;99.90;;;;;;4949354;28;20027;-73
2022/09/23 06:13:59;;;;;;;5.93;2.75;;;9.40;99.90;;;;;;4964334;28;20026;-74
2022/09/23 06:16:26;;;;;;;3.92;1.90;;;9.40;99.90;;;;;;4968427;28;20050;-73
2022/09/23 06:18:52;;;;;;;5.28;2.17;;;9.30;99.90;;;;;;4960444;28;20078;-73
2022/09/23 06:21:18;;;;;;;4.90;2.42;;;9.50;99.90;;;;;;4954984;28;20027;-76
2022/09/23 06:23:45;;;;;;;6.53;2.67;;;9.60;99.90;;;;;;4969853;28;20827;-74
2022/09/23 06:26:14;;;;;;;6.70;2.67;;;9.60;99.90;;;;;;4953684;28;20085;-75
2022/09/23 06:28:42;;;;;;;6.88;2.70;;;9.70;99.90;;;;;;4964268;28;20031;-75
2022/09/23 06:31:14;;;;;;;3.20;2.03;;;9.80;99.90;;;;;;4963652;28;20039;-75
2022/09/23 06:33:42;;;;;;;6.80;2.95;;;9.80;99.90;;;;;;4943593;28;20101;-75
2022/09/23 06:36:09;;;;;;;5.47;2.42;;;9.90;99.90;;;;;;4951411;28;20042;-74
2022/09/23 06:38:40;;;;;;;4.53;2.33;;;9.90;99.90;;;;;;4951023;28;20503;-74
2022/09/23 06:41:06;;;;;;;4.35;2.28;;;10.00;99.90;;;;;;4950292;28;20571;-75
2022/09/23 06:43:32;;;;;;;4.57;2.60;;;9.90;99.90;;;;;;4951010;28;20827;-75
2022/09/23 06:46:00;;;;;;;3.88;2.65;;;10.00;99.90;;;;;;4965653;28;20118;-75
2022/09/23 06:48:27;;;;;;;5.38;2.25;;;10.00;99.90;;;;;;4951065;28;20451;-75
2022/09/23 06:50:56;;;;;;;3.13;2.47;;;10.10;99.90;;;;;;4948766;28;20027;-74
2022/09/23 06:53:22;;;;;;;6.05;2.70;;;9.90;99.90;;;;;;4965252;28;20047;-75
2022/09/23 06:56:06;;;;;;;5.07;2.75;;;9.90;99.90;;;;;;4951431;28;20031;-75
2022/09/23 06:58:34;;;;;;;4.43;2.70;;;10.00;99.90;;;;;;4950919;28;20062;-75
2022/09/23 07:01:06;;;;;;;8.20;3.22;;;10.00;99.90;;;;;;4965379;28;20034;-75
2022/09/23 07:03:33;;;;;;;3.60;2.35;;;9.70;99.90;;;;;;4965199;28;20098;-75
2022/09/23 07:06:00;;;;;;;3.15;1.98;;;9.90;99.90;;;;;;4951045;28;20042;-75
2022/09/23 07:08:29;;;;;;;4.20;2.20;;;10.10;99.90;;;;;;4950748;28;20086;-75
2022/09/23 07:10:57;;;;;;;15.60;2.80;;;10.10;99.90;;;;;;4971880;28;20048;-75
2022/09/23 07:13:24;;;;;;;5.05;2.20;;;10.20;99.90;;;;;;4960944;28;20039;-75
2022/09/23 07:15:57;;;;;;;20.65;2.53;;;10.20;99.90;;;;;;4984734;28;20027;-75
2022/09/23 07:18:24;;;;;;;19.20;3.00;;;10.20;99.90;;;;;;4951817;28;20036;-66
2022/09/23 07:20:51;;;;;;;3.72;2.22;;;10.10;99.90;;;;;;4954916;28;20034;-65
2022/09/23 07:23:18;;;;;;;6.15;2.30;;;10.20;99.90;;;;;;4973203;28;20027;-66
2022/09/23 07:25:49;;;;;;;11.23;2.40;;;10.30;99.90;;;;;;4965850;28;20499;-66
2022/09/23 07:28:16;;;;;;;7.35;2.20;;;10.30;99.90;;;;;;4951034;28;20031;-66
2022/09/23 07:30:43;;;;;;;4.25;2.10;;;10.30;99.90;;;;;;4964461;28;20027;-73
2022/09/23 07:33:09;;;;;;;5.95;2.80;;;10.10;99.90;;;;;;4949195;28;20031;-74
2022/09/23 07:35:39;;;;;;;4.43;2.47;;;10.20;99.90;;;;;;4975498;28;20063;-74
2022/09/23 07:38:07;;;;;;;1.33;1.17;;;10.20;99.90;;;;;;4966611;28;20041;-74
2022/09/23 07:40:33;;;;;;;6.60;2.33;;;10.30;99.90;;;;;;4967071;28;20034;-75
2022/09/23 07:42:59;;;;;;;4.47;2.60;;;10.50;99.90;;;;;;4972632;28;20069;-74
2022/09/23 07:45:26;;;;;;;5.13;2.28;;;10.70;99.90;;;;;;4969461;28;20467;-73
2022/09/23 07:47:54;;;;;;;3.55;1.90;;;10.80;99.90;;;;;;4962884;28;20067;-73
2022/09/23 07:50:21;;;;;;;20.67;4.05;;;10.80;99.90;;;;;;4969438;28;20479;-74
2022/09/23 07:52:51;;;;;;;5.20;3.03;;;11.00;99.90;;;;;;4952764;28;20045;-73
2022/09/23 07:55:17;;;;;;;10.00;3.05;;;11.00;99.90;;;;;;4961869;28;20031;-73
2022/09/23 07:57:43;;;;;;;4.10;2.22;;;11.00;99.90;;;;;;4986921;28;20398;-74
2022/09/23 08:00:09;;;;;;;4.38;2.25;;;10.80;99.90;;;;;;4962815;28;20117;-73
2022/09/23 08:02:35;;;;;;;4.25;2.45;;;11.00;99.90;;;;;;4966303;28;20062;-74
2022/09/23 08:05:02;;;;;;;4.00;2.53;;;11.10;99.90;;;;;;4968926;28;20073;-74
2022/09/23 08:07:27;;;;;;;3.95;2.45;;;11.30;99.90;;;;;;4956303;28;20030;-74
2022/09/23 08:09:53;;;;;;;3.97;2.08;;;11.60;99.90;;;;;;4960829;28;20035;-73
2022/09/23 08:12:19;;;;;;;3.05;2.13;;;11.60;99.90;;;;;;4957016;28;20504;-74
2022/09/23 08:14:45;;;;;;;3.60;2.38;;;11.60;99.90;;;;;;4970870;28;20031;-74
2022/09/23 08:17:12;;;;;;;7.15;3.03;;;11.70;99.90;;;;;;4968650;28;20394;-75
2022/09/23 08:19:38;;;;;;;6.25;3.22;;;11.90;99.90;;;;;;4964479;28;20118;-74
2022/09/23 08:22:04;;;;;;;5.55;2.50;;;12.00;99.90;;;;;;4967491;28;20105;-74
2022/09/23 08:24:31;;;;;;;7.13;2.90;;;12.10;99.90;;;;;;4964489;28;20042;-74
2022/09/23 08:26:57;;;;;;;2.85;1.98;;;12.10;99.90;;;;;;4957202;28;20027;-75
2022/09/23 08:29:25;;;;;;;7.50;2.45;;;12.20;99.90;;;;;;4975596;28;20033;-74
2022/09/23 08:31:52;;;;;;;5.13;2.72;;;12.30;99.90;;;;;;4951786;28;20192;-74
2022/09/23 08:34:22;;;;;;;14.13;3.42;;;12.30;99.90;;;;;;4974669;28;20027;-76
2022/09/23 08:36:48;;;;;;;5.30;3.03;;;12.50;99.90;;;;;;4965345;28;20077;-75
2022/09/23 08:39:17;;;;;;;10.27;3.53;;;12.40;99.90;;;;;;4962618;28;20031;-75
2022/09/23 08:41:55;;;;;;;5.35;2.78;;;12.30;99.90;;;;;;4947833;28;20082;-75
2022/09/23 08:44:50;;;;;;;5.50;2.92;;;12.40;99.90;;;;;;4960520;28;20038;-75
2022/09/23 08:47:38;;;;;;;4.45;2.58;;;12.60;99.90;;;;;;4953059;28;20059;-75
2022/09/23 08:50:22;;;;;;;15.38;3.30;;;12.70;99.90;;;;;;4958214;28;20039;-75
2022/09/23 08:53:01;;;;;;;4.75;2.50;;;12.80;99.90;;;;;;4957385;28;20034;-75
2022/09/23 08:55:38;;;;;;;4.50;2.20;;;12.90;99.90;;;;;;4953474;28;20043;-75
2022/09/23 08:58:36;;;;;;;6.07;2.72;;;12.90;99.90;;;;;;4950957;28;20063;-75
2022/09/23 09:01:25;;;;;;;5.80;2.83;;;13.10;99.90;;;;;;4960536;28;20027;-75
2022/09/23 09:03:55;;;;;;;4.45;2.50;;;13.30;99.90;;;;;;4959121;28;20031;-75
2022/09/23 09:06:41;;;;;;;6.68;2.13;;;13.40;99.90;;;;;;4956528;28;20522;-74
2022/09/23 09:09:22;;;;;;;4.13;2.47;;;13.50;99.90;;;;;;4960249;28;20073;-74
2022/09/23 09:11:54;;;;;;;6.05;3.05;;;13.80;99.90;;;;;;4941838;28;20031;-74
2022/09/23 09:15:06;;;;;;;6.50;2.97;;;13.80;99.90;;;;;;4975356;28;20990;-74
2022/09/23 09:17:37;;;;;;;5.82;2.78;;;13.90;99.90;;;;;;4976491;28;20039;-75
2022/09/23 09:20:22;;;;;;;5.13;2.83;;;14.20;99.90;;;;;;4949753;28;20146;-74
2022/09/23 09:23:01;;;;;;;3.80;2.00;;;14.30;99.90;;;;;;4979554;28;20094;-74
2022/09/23 09:25:44;;;;;;;6.28;2.42;;;14.50;99.90;;;;;;4955890;28;20087;-74
2022/09/23 09:28:23;;;;;;;4.03;2.22;;;14.70;99.90;;;;;;4971939;28;20035;-74
2022/09/23 09:31:32;;;;;;;5.40;2.35;;;14.60;99.90;;;;;;4957253;28;20110;-74
2022/09/23 09:34:23;;;;;;;3.80;2.20;;;14.50;99.90;;;;;;4935298;28;20122;-75
2022/09/23 09:37:12;;;;;;;;;;;14.70;99.90;;;;;;4963247;28;20050;-75
2022/09/23 09:39:38;;;;;;;3.80;1.83;;;14.80;99.90;;;;;;4975914;28;19915;-75
2022/09/23 09:42:05;;;;;;;4.38;1.92;;;15.10;99.90;;;;;;4953760;28;20043;-75
2022/09/23 09:44:54;;;;;;;3.08;1.70;;;15.20;99.90;;;;;;4959658;28;20757;-75
2022/09/23 09:47:45;;;;;;;3.15;1.30;;;15.40;99.90;;;;;;4981340;28;20026;-75
2022/09/23 09:50:47;;;;;;;4.20;1.90;;;15.30;99.90;;;;;;4962369;28;20474;-74
2022/09/23 09:53:34;;;;;;;11.55;2.15;;;15.80;99.90;;;;;;4970531;28;20410;-73
2022/09/23 09:56:08;;;;;;;5.50;2.83;;;15.80;99.90;;;;;;4929620;28;20055;-74
2022/09/23 09:58:57;;;;;;;8.20;1.65;;;16.00;99.90;;;;;;4967696;28;20031;-73
2022/09/23 10:01:27;;;;;;;2.63;1.58;;;16.10;99.90;;;;;;4946102;28;20128;-75
2022/09/23 10:03:57;;;;;;;2.60;1.40;;;16.10;99.90;;;;;;4966961;28;20551;-75
2022/09/23 10:06:26;;;;;;;5.70;1.60;;;16.10;99.90;;;;;;4977969;28;20126;-75
2022/09/23 10:09:08;;;;;;;2.50;1.00;;;16.40;99.90;;;;;;4951082;28;20042;-74
2022/09/23 10:11:34;;;;;;;4.15;1.58;;;16.80;99.90;;;;;;4964286;28;20058;-75
2022/09/23 10:14:19;;;;;;;3.03;1.45;;;17.00;99.90;;;;;;4965554;28;20556;-73
2022/09/23 10:17:00;;;;;;;7.82;2.15;;;17.00;99.90;;;;;;4980480;28;20399;-73
2022/09/23 10:19:27;;;;;;;;;;;17.00;99.90;;;;;;4961269;28;20050;-74
2022/09/23 10:21:59;;;;;;;3.08;1.65;;;17.10;99.90;;;;;;4970012;28;19958;-73
2022/09/23 10:24:37;;;;;;;5.07;2.00;;;17.20;99.90;;;;;;4972880;28;20562;-72
2022/09/23 10:27:10;;;;;;;2.70;1.52;;;17.20;99.90;;;;;;4960122;28;20509;-73
2022/09/23 10:29:45;;;;;;;3.80;1.70;;;17.30;99.90;;;;;;4961221;28;20035;-73
2022/09/23 10:32:36;;;;;;;3.08;1.33;;;17.40;99.90;;;;;;4958039;28;20112;-75
2022/09/23 10:35:08;;;;;;;2.60;1.48;;;17.60;99.90;;;;;;4959778;28;20065;-73
2022/09/23 10:37:55;;;;;;;2.80;1.67;;;17.90;99.10;;;;;;4959560;28;20094;-78
2022/09/23 10:47:13;;;;;;;3.00;1.25;;;17.80;98.40;;;;;;4962386;28;20039;-70
2022/09/23 10:49:51;;;;;;;4.97;1.60;;;17.70;99.50;;;;;;4958926;28;20042;-70
2022/09/23 10:52:56;;;;;;;6.60;1.52;;;18.00;99.30;;;;;;4969051;28;20443;-70
2022/09/23 10:55:39;;;;;;;2.58;1.27;;;18.30;97.90;;;;;;4955555;28;20035;-71
2022/09/23 10:58:57;;;;;;;2.67;1.40;;;18.40;97.90;;;;;;4985252;28;20122;-71
2022/09/23 11:01:35;;;;;;;1.88;1.17;;;18.60;97.70;;;;;;4957872;28;20420;-70
2022/09/23 11:04:19;;;;;;;2.97;1.27;;;18.70;98.50;;;;;;4964289;28;20414;-71
2022/09/23 11:07:12;;;;;;;3.25;1.45;;;18.80;98.10;;;;;;4964207;28;20034;-71
2022/09/23 11:09:47;;;;;;;6.25;1.77;;;19.10;97.30;;;;;;4964553;28;20078;-71
2022/09/23 11:12:54;;;;;;;2.83;1.17;;;19.10;97.40;;;;;;4958247;28;20156;-71
2022/09/23 11:15:54;;;;;;;7.05;1.50;;;19.00;96.70;;;;;;4969376;28;20033;-71
2022/09/23 11:19:06;;;;;;;2.67;1.55;;;19.60;96.60;;;;;;4962123;28;20047;-70
2022/09/23 11:22:09;;;;;;;3.50;1.25;;;18.90;97.60;;;;;;4974145;28;20369;-69
2022/09/23 11:25:03;;;;;;;4.15;1.45;;;19.20;97.00;;;;;;4938164;28;20101;-69
2022/09/23 11:28:16;;;;;;;4.68;1.42;;;19.50;97.20;;;;;;4975165;28;20081;-69
2022/09/23 11:31:03;;;;;;;2.20;1.15;;;19.30;97.30;;;;;;4964472;28;20031;-70
2022/09/23 11:34:14;;;;;;;7.85;1.10;;;19.20;96.80;;;;;;4969241;28;20043;-69
2022/09/23 11:36:56;;;;;;;1.08;0.70;;;19.80;97.60;;;;;;4962592;28;20035;-69
2022/09/23 11:40:00;;;;;;;5.40;1.52;;;19.80;96.60;;;;;;4950950;28;20099;-70
2022/09/23 11:42:34;;;;;;;8.02;1.02;;;19.70;97.00;;;;;;4958862;28;20046;-69
2022/09/23 11:45:17;;;;;;;4.70;1.88;;;19.60;96.50;;;;;;4970015;28;20031;-69
2022/09/23 11:47:52;;;;;;;2.15;1.20;;;19.90;95.50;;;;;;4957625;28;20483;-68
2022/09/23 11:50:26;;;;;;;3.38;1.00;;;20.00;96.30;;;;;;4965130;28;20045;-68
2022/09/23 11:53:04;;;;;;;2.10;1.13;;;20.20;96.50;;;;;;4956121;28;20031;-71
2022/09/23 11:55:47;;;;;;;4.10;1.23;;;19.80;96.30;;;;;;4953645;28;20031;-71
2022/09/23 11:58:26;;;;;;;2.97;1.40;;;20.60;95.70;;;;;;4976166;28;20035;-71
2022/09/23 12:01:11;;;;;;;7.80;1.60;;;19.60;96.20;;;;;;4959845;28;20087;-71
2022/09/23 12:03:54;;;;;;;1.92;0.98;;;20.00;95.50;;;;;;4975792;28;20042;-70
2022/09/23 12:06:26;;;;;;;5.63;1.42;;;20.70;94.50;;;;;;4962647;28;20038;-70
2022/09/23 12:09:01;;;;;;;2.35;1.17;;;20.80;95.10;;;;;;4957494;28;20027;-70
2022/09/23 12:11:43;;;;;;;4.40;1.20;;;20.30;94.90;;;;;;4965184;28;20123;-70
2022/09/23 12:14:33;;;;;;;4.57;1.40;;;20.50;95.60;;;;;;4951078;28;20035;-71
2022/09/23 12:17:14;;;;;;;4.45;1.73;;;21.00;94.80;;;;;;4958933;28;20023;-70
2022/09/23 12:20:01;;;;;;;2.72;1.23;;;21.60;94.60;;;;;;4969341;28;20097;-70
2022/09/23 12:23:24;;;;;;;2.53;1.13;;;21.60;94.20;;;;;;4961001;28;20114;-70
2022/09/23 12:26:11;;;;;;;1.90;1.10;;;22.10;93.20;;;;;;4964326;28;20043;-70
2022/09/23 12:28:44;;;;;;;3.38;1.35;;;21.10;93.80;;;;;;4962032;28;20034;-68
2022/09/23 12:31:17;;;;;;;2.38;1.20;;;21.20;93.10;;;;;;4975646;28;20035;-70
2022/09/23 12:33:52;;;;;;;3.45;1.40;;;21.00;93.30;;;;;;4976384;28;20565;-68
2022/09/23 12:36:34;;;;;;;9.18;3.58;;;20.80;92.70;;;;;;4969144;28;20035;-69
2022/09/23 12:39:14;;;;;;;3.47;1.02;;;22.00;92.80;;;;;;4951075;28;20031;-69
2022/09/23 12:41:42;;;;;;;1.98;1.17;;;21.90;92.70;;;;;;4953475;28;20062;-68
2022/09/23 12:44:14;;;;;;;2.25;1.25;;;21.50;94.10;;;;;;4963631;28;20043;-69
2022/09/23 12:46:42;;;;;;;10.63;1.38;;;20.60;94.10;;;;;;4960477;28;20499;-68
2022/09/23 12:49:26;;;;;;;2.45;1.05;;;21.30;93.80;;;;;;4971668;28;20031;-69
2022/09/23 12:52:10;;;;;;;2.88;1.27;;;20.80;93.70;;;;;;4959235;28;20035;-69
2022/09/23 12:54:38;;;;;;;5.88;0.80;;;21.30;94.30;;;;;;4949929;28;20058;-72
2022/09/23 12:57:08;;;;;;;1.85;1.10;;;21.70;93.70;;;;;;4979626;28;20418;-73
2022/09/23 13:00:18;;;;;;;1.25;0.82;;;21.60;92.80;;;;;;4951213;28;20031;-72
2022/09/23 13:08:19;;;;;;;2.45;1.13;;;21.80;92.80;;;;;;4960762;28;20043;-72
2022/09/23 13:10:55;;;;;;;4.72;0.77;;;21.40;92.70;;;;;;4970458;28;20058;-72
2022/09/23 13:13:42;;;;;;;1.40;1.02;;;22.50;91.80;;;;;;4970857;28;20085;-72
2022/09/23 13:16:24;;;;;;;2.67;1.55;;;22.00;91.00;;;;;;4952638;28;20540;-72
2022/09/23 13:18:57;;;;;;;2.65;0.93;;;23.00;91.70;;;;;;4959502;28;20038;-73
2022/09/23 13:22:07;;;;;;;1.98;1.05;;;21.70;91.50;;;;;;4959227;28;20390;-73
2022/09/23 13:24:43;;;;;;;3.08;1.05;;;23.00;91.80;;;;;;4945656;28;20034;-72
2022/09/23 13:27:22;;;;;;;2.20;0.85;;;22.50;91.10;;;;;;4953002;28;20047;-73
2022/09/23 13:30:03;;;;;;;6.78;1.40;;;23.40;90.60;;;;;;4971203;28;20031;-72
2022/09/23 13:32:56;;;;;;;4.00;0.88;;;23.20;90.20;;;;;;4965138;28;20133;-72
2022/09/23 13:35:35;;;;;;;2.00;1.20;;;22.90;91.00;;;;;;4969631;28;20126;-71
2022/09/23 13:38:24;;;;;;;2.00;0.85;;;23.10;91.90;;;;;;4956427;28;20032;-71
2022/09/23 13:40:55;;;;;;;2.40;1.30;;;22.30;90.40;;;;;;4955308;28;20051;-73
2022/09/23 13:43:26;;;;;;;;;;;21.40;91.60;;;;;;4970647;28;20027;-72
2022/09/23 13:45:52;;;;;;;8.73;1.65;;;20.80;92.60;;;;;;4981087;28;20009;-72
2022/09/23 13:48:23;;;;;;;3.38;1.00;;;20.90;94.20;;;;;;4950760;28;20113;-72
2022/09/23 13:50:52;;;;;;;2.80;1.15;;;21.50;93.20;;;;;;4963254;28;20081;-71